Time;durP1;ratioP1;P1;durP2;ratioP2;P2;SDS_P1;SDS_P2;PMS_P1;PMS_P2;Temp;Humidity;BMP_temperature;BMP_pressure;BME280_temperature;BME280_humidity;BME280_pressure;Samples;Min_cycle;Max_cycle;Signal;HPM_P1;HPM_P2
2023/08/11 00:02:13;;;;;;;14.38;7.03;;;17.70;99.90;;;;;;5012336;28;20200;-49
2023/08/11 00:04:38;;;;;;;12.13;6.40;;;17.80;99.90;;;;;;5013826;28;20164;-47
2023/08/11 00:07:05;;;;;;;10.48;7.38;;;17.90;99.90;;;;;;5013375;28;20168;-49
2023/08/11 00:09:30;;;;;;;13.65;6.68;;;17.90;99.90;;;;;;5013440;28;20292;-49
2023/08/11 00:11:56;;;;;;;20.23;10.50;;;17.80;99.90;;;;;;5013318;28;20359;-49
2023/08/11 00:14:22;;;;;;;20.25;11.70;;;17.90;99.90;;;;;;5013313;28;20168;-49
2023/08/11 00:16:47;;;;;;;16.63;7.97;;;17.90;99.90;;;;;;5013174;28;20575;-49
2023/08/11 00:19:13;;;;;;;25.52;13.52;;;17.90;99.90;;;;;;5013518;28;20164;-49
2023/08/11 00:21:39;;;;;;;26.05;14.25;;;17.80;99.90;;;;;;5013979;28;20199;-49
2023/08/11 00:24:04;;;;;;;24.80;11.23;;;17.90;99.90;;;;;;5026664;28;20250;-50
2023/08/11 00:26:30;;;;;;;20.95;11.13;;;17.90;99.90;;;;;;5032554;28;20191;-49
2023/08/11 00:28:56;;;;;;;25.65;12.63;;;18.00;99.90;;;;;;5032699;28;20199;-49
2023/08/11 00:31:22;;;;;;;22.90;11.68;;;18.00;99.90;;;;;;5032847;28;20233;-49
2023/08/11 00:33:48;;;;;;;23.83;10.25;;;18.00;99.90;;;;;;5032822;28;20172;-46
2023/08/11 00:36:15;;;;;;;31.25;12.73;;;18.00;99.90;;;;;;5032709;28;20254;-46
2023/08/11 00:38:41;;;;;;;15.00;8.77;;;18.10;99.90;;;;;;5033233;28;20210;-45
2023/08/11 00:41:07;;;;;;;30.38;13.63;;;18.10;99.90;;;;;;5031339;28;20163;-45
2023/08/11 00:43:32;;;;;;;16.42;9.25;;;18.10;99.90;;;;;;5032563;28;20198;-46
2023/08/11 00:46:06;;;;;;;15.73;8.07;;;18.00;99.90;;;;;;5032608;28;20198;-46
2023/08/11 00:48:32;;;;;;;11.38;6.63;;;18.00;99.90;;;;;;5032416;28;20780;-46
2023/08/11 00:50:58;;;;;;;12.88;6.63;;;18.00;99.90;;;;;;5032461;28;20188;-46
2023/08/11 00:53:24;;;;;;;10.10;6.65;;;18.00;99.90;;;;;;5021268;28;20179;-46
2023/08/11 00:55:51;;;;;;;11.18;6.53;;;18.00;99.90;;;;;;5012652;28;20659;-45
2023/08/11 00:58:17;;;;;;;12.85;6.25;;;18.00;99.90;;;;;;5012626;28;20168;-46
2023/08/11 01:00:44;;;;;;;9.50;5.35;;;18.00;99.90;;;;;;5014090;28;20183;-46
2023/08/11 01:03:09;;;;;;;12.00;6.70;;;17.90;99.90;;;;;;5032674;28;20171;-46
2023/08/11 01:05:44;;;;;;;8.32;5.75;;;17.90;99.90;;;;;;5032193;28;20528;-45
2023/08/11 01:08:21;;;;;;;10.18;5.65;;;17.80;99.90;;;;;;5030341;28;20189;-45
2023/08/11 01:11:02;;;;;;;13.48;6.22;;;17.70;99.90;;;;;;5031980;28;20301;-45
2023/08/11 01:13:33;;;;;;;12.20;7.13;;;17.60;99.90;;;;;;5031918;28;20207;-46
2023/08/11 01:16:01;;;;;;;11.00;6.45;;;17.60;99.90;;;;;;5032285;28;20175;-45
2023/08/11 01:18:28;;;;;;;11.55;6.40;;;17.60;99.90;;;;;;5031901;28;20168;-45
2023/08/11 01:21:09;;;;;;;8.73;5.95;;;17.70;99.90;;;;;;5030326;28;20175;-46
2023/08/11 01:23:35;;;;;;;9.27;5.88;;;17.70;99.90;;;;;;5031822;28;20199;-46
2023/08/11 01:26:01;;;;;;;8.88;6.03;;;17.60;99.90;;;;;;5031791;28;20713;-46
2023/08/11 01:28:27;;;;;;;11.40;6.45;;;14.90;99.90;;;;;;5031326;28;20203;-46
2023/08/11 01:30:53;;;;;;;9.65;6.13;;;17.60;99.90;;;;;;5031715;28;20163;-46
2023/08/11 01:33:18;;;;;;;13.40;6.50;;;17.60;99.90;;;;;;5031747;28;20504;-46
2023/08/11 01:35:44;;;;;;;11.52;6.35;;;17.50;99.90;;;;;;5031694;28;20164;-45
2023/08/11 01:38:10;;;;;;;9.13;5.80;;;17.50;99.90;;;;;;5031933;28;20176;-46
2023/08/11 01:40:35;;;;;;;9.05;5.68;;;17.50;99.90;;;;;;5030278;28;20171;-46
2023/08/11 01:43:05;;;;;;;9.73;5.57;;;17.60;99.90;;;;;;5031586;28;20698;-46
2023/08/11 01:45:31;;;;;;;12.05;7.05;;;17.50;99.90;;;;;;5031519;28;20554;-45
2023/08/11 01:47:56;;;;;;;25.02;7.22;;;17.60;99.90;;;;;;5031443;28;20174;-46
2023/08/11 01:50:23;;;;;;;13.43;6.90;;;17.50;99.90;;;;;;5031045;28;20183;-45
2023/08/11 01:52:51;;;;;;;11.80;7.15;;;17.50;99.90;;;;;;5031165;28;20179;-46
2023/08/11 01:55:18;;;;;;;10.60;6.78;;;17.50;99.90;;;;;;5031190;28;20167;-48
2023/08/11 01:57:44;;;;;;;11.75;6.38;;;17.50;99.90;;;;;;5031212;28;20163;-46
2023/08/11 02:00:13;;;;;;;11.30;6.32;;;17.50;99.90;;;;;;5031591;28;20167;-46
2023/08/11 02:02:40;;;;;;;12.27;6.85;;;17.50;99.90;;;;;;5031649;28;20167;-46
2023/08/11 02:05:07;;;;;;;13.88;7.88;;;17.40;99.90;;;;;;5031457;28;20164;-46
2023/08/11 02:07:35;;;;;;;12.13;7.80;;;17.40;99.90;;;;;;5031199;28;20563;-46
2023/08/11 02:10:01;;;;;;;13.75;8.07;;;17.50;99.90;;;;;;5030061;28;20206;-46
2023/08/11 02:12:27;;;;;;;13.05;8.73;;;17.50;99.90;;;;;;5030927;28;20276;-46
2023/08/11 02:14:53;;;;;;;13.90;8.88;;;17.50;99.90;;;;;;5031452;28;20179;-46
2023/08/11 02:17:19;;;;;;;15.15;9.45;;;17.50;99.90;;;;;;5031318;28;20224;-46
2023/08/11 02:19:45;;;;;;;13.60;9.13;;;17.50;99.90;;;;;;5030756;28;20792;-46
2023/08/11 02:22:11;;;;;;;14.13;10.18;;;17.50;99.90;;;;;;5017600;28;20183;-45
2023/08/11 02:24:37;;;;;;;19.52;10.30;;;17.40;99.90;;;;;;5011668;28;20699;-45
2023/08/11 02:27:02;;;;;;;19.23;10.40;;;17.40;99.90;;;;;;5011151;28;20302;-46
2023/08/11 02:29:28;;;;;;;17.20;9.98;;;17.40;99.90;;;;;;5011334;28;20208;-46
2023/08/11 02:31:54;;;;;;;14.75;10.40;;;17.40;99.90;;;;;;5011109;28;20759;-47
2023/08/11 02:34:19;;;;;;;13.95;10.18;;;17.40;99.90;;;;;;5011027;28;20527;-46
2023/08/11 02:36:45;;;;;;;15.95;9.45;;;17.40;99.90;;;;;;5011015;28;20573;-46
2023/08/11 02:39:10;;;;;;;13.25;10.05;;;17.40;99.90;;;;;;5011784;28;20168;-46
2023/08/11 02:41:36;;;;;;;15.35;10.45;;;17.30;99.90;;;;;;5011469;28;20196;-47
2023/08/11 02:44:02;;;;;;;14.82;9.98;;;17.30;99.90;;;;;;5011390;28;20176;-47
2023/08/11 02:46:27;;;;;;;13.43;10.38;;;17.30;99.90;;;;;;5011405;28;20180;-48
2023/08/11 02:48:53;;;;;;;13.88;10.68;;;17.30;99.90;;;;;;5011008;28;20238;-46
2023/08/11 02:51:19;;;;;;;14.68;9.63;;;17.20;99.90;;;;;;5017671;28;20185;-46
2023/08/11 02:53:44;;;;;;;19.02;9.82;;;17.20;99.90;;;;;;5030810;28;20258;-46
2023/08/11 02:56:15;;;;;;;18.42;10.52;;;17.10;99.90;;;;;;5031159;28;20198;-46
2023/08/11 02:58:43;;;;;;;14.23;9.93;;;17.10;99.90;;;;;;5031433;28;20175;-45
2023/08/11 03:01:09;;;;;;;16.63;11.07;;;15.40;99.90;;;;;;5031016;28;20175;-46
2023/08/11 03:03:34;;;;;;;20.42;12.05;;;17.10;99.90;;;;;;5030633;28;20175;-46
2023/08/11 03:06:00;;;;;;;20.60;12.13;;;17.00;99.90;;;;;;5029938;28;20167;-46
2023/08/11 03:08:25;;;;;;;15.32;9.00;;;17.10;99.90;;;;;;5011097;28;20753;-46
2023/08/11 03:10:51;;;;;;;17.20;9.95;;;17.10;99.90;;;;;;5010904;28;20644;-46
2023/08/11 03:13:17;;;;;;;24.58;14.30;;;17.00;99.90;;;;;;5010637;28;20269;-46
2023/08/11 03:15:43;;;;;;;21.15;12.48;;;17.10;99.90;;;;;;5010979;28;20176;-46
2023/08/11 03:18:09;;;;;;;12.73;10.02;;;17.00;99.90;;;;;;5011400;28;20172;-46
2023/08/11 03:20:35;;;;;;;20.35;11.20;;;17.00;99.90;;;;;;5010856;28;20238;-46
2023/08/11 03:23:01;;;;;;;17.60;9.73;;;17.00;99.90;;;;;;5026289;28;20636;-45
2023/08/11 03:25:27;;;;;;;15.90;10.60;;;17.00;99.90;;;;;;5010718;28;20214;-47
2023/08/11 03:27:52;;;;;;;13.15;8.85;;;16.90;99.90;;;;;;5010911;28;20172;-46
2023/08/11 03:30:18;;;;;;;13.55;7.75;;;16.90;99.90;;;;;;5011056;28;20187;-46
2023/08/11 03:32:43;;;;;;;13.07;8.45;;;16.90;99.90;;;;;;5014094;28;20164;-46
2023/08/11 03:35:09;;;;;;;14.18;9.70;;;16.90;99.90;;;;;;5014460;28;20196;-45
2023/08/11 03:37:35;;;;;;;14.52;10.20;;;16.90;99.90;;;;;;5013916;28;20164;-46
2023/08/11 03:40:00;;;;;;;12.02;8.25;;;16.90;99.90;;;;;;5014284;28;20195;-45
2023/08/11 03:42:26;;;;;;;13.65;8.45;;;16.90;99.90;;;;;;5013898;28;20175;-45
2023/08/11 03:44:52;;;;;;;12.43;8.38;;;16.80;99.90;;;;;;5012657;28;20165;-45
2023/08/11 03:47:19;;;;;;;12.85;9.13;;;16.80;99.90;;;;;;5013906;28;20648;-46
2023/08/11 03:49:45;;;;;;;18.02;8.98;;;16.80;99.90;;;;;;5014021;28;20239;-45
2023/08/11 03:52:12;;;;;;;12.13;7.63;;;16.80;99.90;;;;;;5026913;28;20225;-46
2023/08/11 03:54:37;;;;;;;17.23;10.68;;;16.80;99.90;;;;;;5034025;28;20172;-46
2023/08/11 03:57:03;;;;;;;12.27;8.25;;;16.80;99.90;;;;;;5033422;28;20526;-45
2023/08/11 03:59:29;;;;;;;12.18;8.43;;;16.70;99.90;;;;;;5033496;28;20225;-46
2023/08/11 04:01:54;;;;;;;14.18;7.72;;;16.70;99.90;;;;;;5033185;28;20655;-45
2023/08/11 04:04:20;;;;;;;13.20;8.50;;;16.70;99.90;;;;;;5033387;28;20159;-45
2023/08/11 04:06:45;;;;;;;16.38;7.78;;;16.70;99.90;;;;;;5033253;28;20171;-46
2023/08/11 04:09:11;;;;;;;15.77;8.57;;;16.70;99.90;;;;;;5033017;28;20203;-47
2023/08/11 04:11:37;;;;;;;11.70;9.07;;;16.70;99.90;;;;;;5033742;28;20302;-46
2023/08/11 04:14:02;;;;;;;18.10;8.93;;;16.70;99.90;;;;;;5033090;28;20227;-45
2023/08/11 04:16:28;;;;;;;12.90;8.43;;;16.70;99.90;;;;;;5033113;28;20171;-46
2023/08/11 04:18:54;;;;;;;13.85;8.60;;;16.70;99.90;;;;;;5033381;28;20175;-46
2023/08/11 04:21:19;;;;;;;13.63;8.13;;;16.80;99.90;;;;;;5026266;28;20705;-45
2023/08/11 04:23:45;;;;;;;12.00;8.10;;;16.80;99.90;;;;;;5013190;28;20268;-45
2023/08/11 04:26:10;;;;;;;13.43;8.68;;;16.80;99.90;;;;;;5012965;28;20226;-46
2023/08/11 04:28:38;;;;;;;11.15;7.65;;;16.80;99.90;;;;;;5013452;28;20206;-46
2023/08/11 04:31:06;;;;;;;16.40;8.95;;;16.80;99.90;;;;;;5013052;28;20171;-45
2023/08/11 04:33:32;;;;;;;16.45;8.02;;;16.70;99.90;;;;;;5012866;28;20168;-46
2023/08/11 04:35:58;;;;;;;13.93;8.45;;;16.80;99.90;;;;;;5012982;28;20233;-46
2023/08/11 04:38:23;;;;;;;12.88;9.43;;;16.70;99.90;;;;;;5012787;28;20567;-46
2023/08/11 04:40:50;;;;;;;31.65;15.27;;;16.80;99.90;;;;;;5012535;28;20179;-46
2023/08/11 04:43:16;;;;;;;19.35;11.32;;;16.80;99.90;;;;;;5012427;28;20651;-46
2023/08/11 04:45:42;;;;;;;15.80;8.68;;;16.90;99.90;;;;;;5012421;28;20172;-46
2023/08/11 04:48:07;;;;;;;14.50;8.50;;;16.90;99.90;;;;;;5013139;28;20270;-46
2023/08/11 04:50:33;;;;;;;27.35;11.30;;;16.80;99.90;;;;;;5012636;28;20191;-47
2023/08/11 04:52:58;;;;;;;13.93;8.75;;;16.90;99.90;;;;;;5031229;28;20207;-45
2023/08/11 04:55:24;;;;;;;18.55;10.10;;;16.90;99.90;;;;;;5032487;28;20171;-46
2023/08/11 04:57:49;;;;;;;34.58;14.80;;;16.90;99.90;;;;;;5032308;28;20538;-46
2023/08/11 05:00:16;;;;;;;30.35;12.60;;;16.90;99.90;;;;;;5032163;28;20507;-46
2023/08/11 05:02:44;;;;;;;29.88;12.02;;;16.90;99.90;;;;;;5032425;28;20686;-46
2023/08/11 05:05:11;;;;;;;19.40;10.30;;;16.90;99.90;;;;;;5031387;28;20167;-46
2023/08/11 05:07:37;;;;;;;19.40;10.07;;;17.00;99.90;;;;;;5032179;28;20173;-46
2023/08/11 05:10:04;;;;;;;20.10;11.10;;;17.20;99.90;;;;;;5032091;28;20298;-46
2023/08/11 05:12:30;;;;;;;13.82;7.85;;;17.00;99.90;;;;;;5031709;28;20729;-45
2023/08/11 05:14:56;;;;;;;23.88;12.20;;;17.00;99.90;;;;;;5030782;28;20177;-47
2023/08/11 05:17:21;;;;;;;9.75;6.60;;;17.00;99.90;;;;;;5031854;28;20168;-48
2023/08/11 05:19:47;;;;;;;12.48;7.60;;;17.10;99.90;;;;;;5031610;28;20203;-46
2023/08/11 05:22:12;;;;;;;17.98;8.48;;;17.20;99.90;;;;;;5030142;28;20199;-47
2023/08/11 05:24:38;;;;;;;17.90;8.30;;;17.30;99.90;;;;;;5032143;28;20168;-46
2023/08/11 05:27:04;;;;;;;13.85;8.27;;;17.30;99.90;;;;;;5031683;28;20163;-47
2023/08/11 05:29:30;;;;;;;35.53;19.33;;;17.40;99.90;;;;;;5029548;28;20211;-47
2023/08/11 05:31:55;;;;;;;12.82;8.23;;;17.40;99.90;;;;;;5031516;28;20170;-47
2023/08/11 05:34:21;;;;;;;17.55;9.57;;;17.40;99.90;;;;;;5031705;28;20175;-45
2023/08/11 05:36:48;;;;;;;18.50;10.82;;;17.40;99.90;;;;;;5031482;28;20171;-46
2023/08/11 05:39:13;;;;;;;10.77;6.72;;;17.50;99.90;;;;;;5031446;28;20529;-46
2023/08/11 05:41:40;;;;;;;14.55;7.88;;;17.60;99.90;;;;;;5031811;28;20167;-45
2023/08/11 05:44:06;;;;;;;11.07;5.68;;;17.70;99.90;;;;;;5031660;28;20167;-48
2023/08/11 05:46:31;;;;;;;12.07;7.30;;;17.80;99.90;;;;;;5031118;28;20171;-48
2023/08/11 05:48:57;;;;;;;12.77;6.93;;;17.80;99.90;;;;;;5031438;28;20218;-48
2023/08/11 05:51:23;;;;;;;11.00;6.00;;;17.90;99.90;;;;;;5031184;28;20633;-46
2023/08/11 05:53:48;;;;;;;30.42;15.70;;;17.90;99.90;;;;;;5030520;28;20250;-46
2023/08/11 05:56:15;;;;;;;18.73;8.65;;;18.00;99.90;;;;;;5031013;28;20163;-46
2023/08/11 05:58:40;;;;;;;8.57;5.53;;;18.10;99.90;;;;;;5031624;28;20168;-48
2023/08/11 06:01:06;;;;;;;15.98;5.45;;;18.10;99.90;;;;;;5031208;28;20178;-48
2023/08/11 06:03:32;;;;;;;26.73;11.65;;;18.20;99.90;;;;;;5031174;28;20167;-46
2023/08/11 06:06:01;;;;;;;13.38;6.72;;;18.30;99.90;;;;;;5031036;28;20179;-48
2023/08/11 06:08:27;;;;;;;9.27;5.63;;;18.40;99.90;;;;;;5031258;28;20199;-48
2023/08/11 06:10:54;;;;;;;10.43;7.05;;;18.40;99.90;;;;;;5030988;28;20172;-47
2023/08/11 06:13:21;;;;;;;19.15;6.57;;;18.50;99.90;;;;;;5030872;28;20215;-48
2023/08/11 06:15:47;;;;;;;31.85;12.65;;;18.60;99.90;;;;;;5031229;28;20254;-47
2023/08/11 06:18:13;;;;;;;10.55;6.65;;;18.70;99.90;;;;;;5030954;28;20241;-49
2023/08/11 06:20:39;;;;;;;11.80;6.10;;;18.80;99.90;;;;;;5031354;28;20317;-46
2023/08/11 06:23:04;;;;;;;26.25;13.85;;;18.80;99.90;;;;;;5030916;28;20166;-46
2023/08/11 06:25:30;;;;;;;15.35;8.00;;;18.90;99.90;;;;;;5030879;28;20734;-45
2023/08/11 06:27:55;;;;;;;22.13;11.18;;;19.00;99.90;;;;;;5030885;28;20168;-48
2023/08/11 06:30:21;;;;;;;12.23;7.13;;;19.10;99.90;;;;;;5017840;28;20208;-48
2023/08/11 06:32:47;;;;;;;10.50;6.10;;;19.10;99.90;;;;;;5010917;28;20194;-48
2023/08/11 06:35:12;;;;;;;10.80;6.07;;;19.20;99.90;;;;;;5011287;28;20223;-46
2023/08/11 06:37:38;;;;;;;11.20;6.65;;;19.40;99.90;;;;;;5011554;28;20730;-47
2023/08/11 06:40:04;;;;;;;14.45;8.25;;;19.30;99.90;;;;;;5011281;28;20168;-48
2023/08/11 06:42:30;;;;;;;14.10;7.25;;;19.40;99.90;;;;;;5011095;28;20397;-48
2023/08/11 06:44:55;;;;;;;17.45;6.57;;;19.50;99.90;;;;;;5010975;28;20624;-48
2023/08/11 06:47:21;;;;;;;14.15;6.82;;;19.60;99.90;;;;;;5010963;28;20171;-48
2023/08/11 06:49:47;;;;;;;14.27;7.30;;;19.60;99.90;;;;;;5011127;28;20311;-49
2023/08/11 06:52:12;;;;;;;15.48;10.90;;;19.80;99.90;;;;;;5010899;28;20175;-47
2023/08/11 06:54:39;;;;;;;24.27;13.95;;;19.90;99.90;;;;;;5011215;28;20180;-49
2023/08/11 06:57:05;;;;;;;13.23;7.88;;;20.00;99.90;;;;;;5010950;28;20168;-49
2023/08/11 06:59:30;;;;;;;11.57;6.93;;;20.10;99.90;;;;;;5016131;28;20186;-48
2023/08/11 07:01:56;;;;;;;11.93;6.72;;;20.10;99.90;;;;;;5030713;28;20301;-46
2023/08/11 07:04:22;;;;;;;13.10;6.20;;;20.30;99.90;;;;;;5031363;28;20175;-47
2023/08/11 07:06:47;;;;;;;7.25;5.43;;;20.40;99.90;;;;;;5034451;28;20167;-48
2023/08/11 07:09:13;;;;;;;9.88;5.80;;;20.50;99.90;;;;;;5034279;28;20202;-47
2023/08/11 07:11:38;;;;;;;9.88;5.75;;;20.60;99.90;;;;;;5034636;28;20627;-45
2023/08/11 07:14:04;;;;;;;10.85;5.82;;;20.60;99.90;;;;;;5034277;28;20245;-46
2023/08/11 07:16:30;;;;;;;12.73;5.57;;;20.80;99.90;;;;;;5032918;28;20167;-48
2023/08/11 07:18:56;;;;;;;10.45;5.68;;;20.80;99.90;;;;;;5034249;28;20171;-47
2023/08/11 07:21:21;;;;;;;13.43;5.65;;;21.00;99.90;;;;;;5032832;28;20635;-47
2023/08/11 07:23:47;;;;;;;9.40;5.07;;;21.10;99.90;;;;;;5034043;28;20254;-48
2023/08/11 07:26:12;;;;;;;6.70;4.75;;;21.20;99.90;;;;;;5034058;28;20252;-46
2023/08/11 07:28:38;;;;;;;10.23;4.88;;;21.30;99.90;;;;;;5033267;28;20667;-48
2023/08/11 07:31:04;;;;;;;12.70;5.25;;;21.40;99.90;;;;;;5014511;28;20575;-48
2023/08/11 07:33:29;;;;;;;6.43;4.65;;;21.50;99.90;;;;;;5014166;28;21138;-45
2023/08/11 07:35:55;;;;;;;8.85;4.68;;;21.60;99.90;;;;;;5014006;28;20179;-46
2023/08/11 07:38:20;;;;;;;12.18;5.18;;;21.70;99.90;;;;;;5013996;28;20175;-47
2023/08/11 07:40:47;;;;;;;6.82;4.55;;;21.90;99.90;;;;;;5014036;28;20168;-49
2023/08/11 07:43:13;;;;;;;8.77;4.80;;;22.00;99.90;;;;;;5013903;28;20168;-48
2023/08/11 07:45:38;;;;;;;11.50;4.82;;;22.20;99.90;;;;;;5014347;28;20168;-48
2023/08/11 07:48:04;;;;;;;8.57;4.25;;;22.20;99.90;;;;;;5014090;28;20172;-48
2023/08/11 07:50:30;;;;;;;9.55;4.60;;;22.20;99.90;;;;;;5013817;28;20211;-48
2023/08/11 07:52:55;;;;;;;8.70;4.10;;;22.40;99.90;;;;;;5012722;28;20520;-48
2023/08/11 07:55:21;;;;;;;7.07;3.83;;;22.50;99.90;;;;;;5013744;28;20176;-48
2023/08/11 07:57:46;;;;;;;5.80;3.80;;;22.70;99.90;;;;;;5013762;28;20164;-47
2023/08/11 08:00:16;;;;;;;5.22;3.42;;;22.80;99.90;;;;;;5026516;28;20254;-45
2023/08/11 08:02:43;;;;;;;5.43;3.50;;;22.90;99.90;;;;;;5032991;28;20178;-46
2023/08/11 08:05:10;;;;;;;3.45;3.15;;;22.90;99.90;;;;;;5033658;28;20195;-45
2023/08/11 08:07:36;;;;;;;4.13;2.80;;;23.00;99.90;;;;;;5033978;28;20266;-45
2023/08/11 08:10:08;;;;;;;4.25;2.78;;;23.20;99.90;;;;;;5031799;28;20306;-45
2023/08/11 08:12:37;;;;;;;6.90;3.38;;;23.30;99.90;;;;;;5033034;28;20247;-45
2023/08/11 08:15:04;;;;;;;4.20;2.92;;;23.40;99.90;;;;;;5033440;28;20172;-46
2023/08/11 08:17:31;;;;;;;5.45;3.17;;;23.50;99.90;;;;;;5032859;28;20202;-46
2023/08/11 08:19:56;;;;;;;4.10;2.70;;;23.60;99.90;;;;;;5031920;28;20173;-46
2023/08/11 08:22:22;;;;;;;9.02;3.50;;;23.70;99.90;;;;;;5033011;28;20179;-48
2023/08/11 08:24:48;;;;;;;8.20;3.50;;;23.90;99.90;;;;;;5032894;28;20178;-47
2023/08/11 08:27:15;;;;;;;7.38;3.50;;;24.10;99.90;;;;;;5032832;28;20170;-45
2023/08/11 08:29:40;;;;;;;6.13;3.25;;;24.20;99.90;;;;;;5020987;28;20211;-45
2023/08/11 08:32:06;;;;;;;4.13;3.17;;;24.20;99.90;;;;;;5012971;28;20628;-45
2023/08/11 08:34:32;;;;;;;8.18;3.42;;;24.60;99.90;;;;;;5012783;28;20251;-45
2023/08/11 08:36:57;;;;;;;6.22;3.80;;;24.40;99.90;;;;;;5012784;28;20208;-45
2023/08/11 08:39:23;;;;;;;8.73;4.32;;;24.50;99.90;;;;;;5012811;28;20179;-45
2023/08/11 08:41:52;;;;;;;11.23;4.07;;;24.50;99.90;;;;;;5012823;28;20164;-45
2023/08/11 08:44:19;;;;;;;8.18;4.07;;;24.70;99.90;;;;;;5012665;28;20183;-45
2023/08/11 08:46:47;;;;;;;7.80;3.70;;;24.70;99.90;;;;;;5012663;28;20234;-45
2023/08/11 08:49:25;;;;;;;8.63;3.80;;;24.70;99.90;;;;;;5011529;28;20203;-45
2023/08/11 08:51:52;;;;;;;6.00;3.35;;;24.80;99.90;;;;;;5012518;28;20170;-45
2023/08/11 08:54:18;;;;;;;7.82;4.18;;;24.90;99.90;;;;;;5012587;28;20176;-46
2023/08/11 08:56:43;;;;;;;7.57;3.85;;;25.20;99.90;;;;;;5012410;28;20168;-45
2023/08/11 08:59:09;;;;;;;8.32;3.40;;;25.20;99.90;;;;;;5020035;28;20167;-45
2023/08/11 09:01:36;;;;;;;10.23;3.95;;;27.60;99.90;;;;;;5032580;28;20654;-45
2023/08/11 09:04:02;;;;;;;7.00;3.25;;;25.30;99.90;;;;;;5032173;28;20623;-45
2023/08/11 09:06:28;;;;;;;5.25;2.90;;;24.80;99.90;;;;;;5031570;28;20190;-45
2023/08/11 09:08:54;;;;;;;5.00;3.22;;;25.40;99.90;;;;;;5031706;28;20206;-46
2023/08/11 09:11:21;;;;;;;6.07;3.17;;;25.50;99.90;;;;;;5032015;28;20302;-45
2023/08/11 09:13:47;;;;;;;5.00;2.85;;;25.60;99.90;;;;;;5032090;28;20223;-45
2023/08/11 09:16:14;;;;;;;6.00;3.17;;;25.70;99.90;;;;;;5031895;28;20178;-45
2023/08/11 09:18:40;;;;;;;5.45;2.97;;;25.80;99.90;;;;;;5031859;28;20163;-46
2023/08/11 09:21:06;;;;;;;8.30;2.80;;;25.80;99.90;;;;;;5032536;28;20571;-46
2023/08/11 09:23:36;;;;;;;6.28;2.85;;;26.00;99.90;;;;;;5031986;28;20171;-46
2023/08/11 09:26:02;;;;;;;8.93;3.00;;;26.00;99.90;;;;;;5031735;28;20300;-46
2023/08/11 09:28:28;;;;;;;5.22;3.08;;;26.00;99.90;;;;;;5029972;28;20285;-44
2023/08/11 09:30:54;;;;;;;7.85;2.90;;;26.00;99.90;;;;;;5011910;28;20216;-45
2023/08/11 09:33:25;;;;;;;4.18;2.97;;;26.20;99.90;;;;;;5011800;28;20171;-45
2023/08/11 09:35:53;;;;;;;6.63;2.75;;;26.20;99.90;;;;;;5011852;28;20171;-48
2023/08/11 09:38:19;;;;;;;9.23;2.90;;;26.30;99.90;;;;;;5011996;28;20171;-46
2023/08/11 09:40:47;;;;;;;9.18;3.20;;;26.50;99.90;;;;;;5011650;28;20163;-46
2023/08/11 09:43:13;;;;;;;10.35;3.13;;;26.50;99.90;;;;;;5011787;28;20636;-45
2023/08/11 09:45:38;;;;;;;8.02;2.72;;;26.50;99.90;;;;;;5011952;28;20174;-46
2023/08/11 09:48:04;;;;;;;4.55;2.67;;;26.50;99.90;;;;;;5012566;28;20168;-46
2023/08/11 09:50:34;;;;;;;7.72;3.00;;;26.70;99.90;;;;;;5011475;28;20689;-45
2023/08/11 09:53:04;;;;;;;10.88;2.70;;;26.80;99.90;;;;;;5011585;28;20187;-49
2023/08/11 09:55:32;;;;;;;13.30;3.20;;;26.80;99.90;;;;;;5011758;28;20562;-46
2023/08/11 09:57:59;;;;;;;7.88;3.08;;;26.70;99.90;;;;;;5011433;28;20586;-45
2023/08/11 10:00:25;;;;;;;6.20;2.72;;;26.70;99.90;;;;;;5027412;28;20186;-46
2023/08/11 10:03:01;;;;;;;4.50;3.10;;;26.90;99.90;;;;;;5031376;28;20175;-48
2023/08/11 10:05:29;;;;;;;6.28;3.00;;;26.80;99.90;;;;;;5029864;28;20709;-47
2023/08/11 10:07:56;;;;;;;7.28;2.90;;;27.10;99.90;;;;;;5031367;28;20195;-47
2023/08/11 10:10:23;;;;;;;16.45;3.33;;;27.00;99.90;;;;;;5031186;28;20237;-46
2023/08/11 10:12:54;;;;;;;16.50;3.50;;;27.30;99.90;;;;;;5030832;28;20223;-45
2023/08/11 10:15:22;;;;;;;13.65;3.25;;;27.40;99.90;;;;;;5031024;28;20175;-45
2023/08/11 10:17:48;;;;;;;5.82;3.22;;;27.60;99.90;;;;;;5031010;28;20177;-45
2023/08/11 10:20:15;;;;;;;4.38;2.65;;;27.60;99.90;;;;;;5030890;28;20159;-49
2023/08/11 10:22:41;;;;;;;3.65;2.70;;;27.50;99.90;;;;;;5030943;28;20174;-45
2023/08/11 10:25:08;;;;;;;5.22;3.20;;;27.40;99.90;;;;;;5031570;28;20170;-45
2023/08/11 10:27:36;;;;;;;4.72;2.83;;;27.60;99.90;;;;;;5030748;28;20627;-47
2023/08/11 10:30:05;;;;;;;18.05;3.90;;;27.70;99.90;;;;;;5015211;28;20237;-48
2023/08/11 10:32:34;;;;;;;5.50;3.03;;;27.70;99.90;;;;;;5011044;28;20657;-46
2023/08/11 10:35:00;;;;;;;5.50;3.17;;;27.50;99.90;;;;;;5011010;28;20168;-48
2023/08/11 10:37:32;;;;;;;4.20;2.92;;;27.40;99.90;;;;;;5011077;28;20167;-46
2023/08/11 10:40:17;;;;;;;6.72;3.05;;;27.70;99.90;;;;;;5012751;28;20167;-47
2023/08/11 10:42:42;;;;;;;6.05;2.95;;;27.80;99.90;;;;;;5015142;28;20163;-49
2023/08/11 10:45:14;;;;;;;6.72;3.25;;;28.00;99.90;;;;;;5015524;28;20195;-45
2023/08/11 10:47:53;;;;;;;10.38;2.83;;;28.00;99.90;;;;;;5015200;28;20190;-45
2023/08/11 10:50:21;;;;;;;5.88;3.05;;;28.00;99.90;;;;;;5014788;28;20206;-45
2023/08/11 10:52:54;;;;;;;8.50;2.95;;;28.00;99.90;;;;;;5013737;28;20581;-45
2023/08/11 10:55:20;;;;;;;4.03;2.88;;;28.20;99.90;;;;;;5015261;28;20171;-45
2023/08/11 10:58:12;;;;;;;4.97;2.95;;;28.00;99.90;;;;;;5015445;28;20217;-46
2023/08/11 11:00:39;;;;;;;6.13;2.78;;;28.30;99.90;;;;;;5019466;28;20179;-45
2023/08/11 11:03:04;;;;;;;5.07;2.97;;;28.30;99.90;;;;;;5035122;28;20229;-45
2023/08/11 11:05:31;;;;;;;6.60;2.85;;;28.70;99.90;;;;;;5034493;28;20166;-45
2023/08/11 11:07:56;;;;;;;7.03;3.10;;;28.50;99.90;;;;;;5034573;28;20255;-45
2023/08/11 11:10:22;;;;;;;5.32;2.60;;;28.50;98.80;;;;;;5034212;28;20655;-45
2023/08/11 11:12:47;;;;;;;5.68;2.70;;;28.50;98.90;;;;;;5034025;28;20671;-46
2023/08/11 11:15:13;;;;;;;4.30;2.88;;;28.70;98.90;;;;;;5034363;28;20183;-46
2023/08/11 11:17:38;;;;;;;4.50;3.22;;;28.80;98.50;;;;;;5034596;28;20167;-45
2023/08/11 11:20:05;;;;;;;5.90;2.90;;;29.00;98.90;;;;;;5023976;28;20190;-45
2023/08/11 11:22:30;;;;;;;4.07;2.90;;;28.80;97.20;;;;;;5014595;28;20176;-45
2023/08/11 11:25:02;;;;;;;7.55;3.00;;;28.80;97.90;;;;;;5014260;28;20176;-49
2023/08/11 11:27:28;;;;;;;3.78;2.97;;;29.10;97.60;;;;;;5014969;28;20175;-48
2023/08/11 11:29:58;;;;;;;5.50;2.78;;;29.00;99.90;;;;;;5033846;28;20535;-48
2023/08/11 11:32:24;;;;;;;4.68;3.10;;;29.00;96.60;;;;;;5033608;28;20178;-49
2023/08/11 11:34:50;;;;;;;4.20;3.08;;;29.10;98.00;;;;;;5033946;28;20167;-46
2023/08/11 11:37:15;;;;;;;5.43;2.67;;;29.10;96.80;;;;;;5032643;28;20170;-47
2023/08/11 11:39:42;;;;;;;6.63;2.70;;;29.30;97.50;;;;;;5033829;28;20320;-46
2023/08/11 11:42:10;;;;;;;5.50;2.95;;;29.30;96.20;;;;;;5033857;28;20198;-49
2023/08/11 11:44:36;;;;;;;5.25;2.83;;;29.30;95.60;;;;;;5034039;28;20167;-49
2023/08/11 11:47:12;;;;;;;9.82;2.90;;;29.40;95.80;;;;;;5033690;28;20174;-46
2023/08/11 11:49:37;;;;;;;4.32;2.92;;;29.30;96.30;;;;;;5033817;28;20389;-46
2023/08/11 11:52:06;;;;;;;5.40;2.72;;;29.40;95.00;;;;;;5032382;28;20263;-45
2023/08/11 11:54:41;;;;;;;7.47;3.25;;;29.30;96.50;;;;;;5033174;28;20174;-46
2023/08/11 11:57:06;;;;;;;6.82;3.00;;;29.20;94.80;;;;;;5033570;28;20297;-49
2023/08/11 11:59:36;;;;;;;5.53;3.17;;;29.30;95.10;;;;;;5015372;28;20289;-46
2023/08/11 12:02:03;;;;;;;7.70;3.20;;;29.30;94.40;;;;;;5013418;28;20658;-50
2023/08/11 12:04:28;;;;;;;6.28;3.00;;;29.30;94.60;;;;;;5013592;28;20193;-50
2023/08/11 12:06:54;;;;;;;8.10;3.70;;;29.50;94.10;;;;;;5013481;28;20198;-48
2023/08/11 12:09:19;;;;;;;7.93;2.92;;;30.30;94.20;;;;;;5012028;28;20569;-49
2023/08/11 12:11:45;;;;;;;5.05;3.05;;;29.40;94.40;;;;;;5012886;28;20599;-47
2023/08/11 12:14:13;;;;;;;5.95;2.95;;;29.80;94.40;;;;;;5013329;28;20184;-47
2023/08/11 12:16:38;;;;;;;5.13;3.10;;;29.60;93.90;;;;;;5013490;28;20194;-47
2023/08/11 12:19:05;;;;;;;4.22;2.97;;;29.50;93.30;;;;;;5013519;28;20171;-51
2023/08/11 12:21:31;;;;;;;9.40;3.22;;;29.70;93.30;;;;;;5013091;28;20198;-49
2023/08/11 12:23:57;;;;;;;5.97;3.05;;;29.80;95.60;;;;;;5013027;28;20263;-47
2023/08/11 12:26:22;;;;;;;5.65;3.30;;;29.70;93.40;;;;;;5012669;28;20195;-50
2023/08/11 12:28:48;;;;;;;7.03;3.03;;;29.70;94.40;;;;;;5024742;28;20206;-50
2023/08/11 12:31:14;;;;;;;4.07;3.35;;;29.90;93.60;;;;;;5032215;28;20182;-50
2023/08/11 12:33:39;;;;;;;7.32;2.97;;;30.10;94.80;;;;;;5032287;28;20167;-49
2023/08/11 12:36:05;;;;;;;6.18;3.15;;;29.90;92.90;;;;;;5032963;28;20178;-50